Latest Weather Observations for Kingfish B

IDV60801

Issued at 3:22 pm EDT Saturday 5 December 2020 (issued every 10 minutes, with the page automatically refreshed every 10 minutes)

About weather observations | Map of weather stations | Latest weather observations for VIC | Other Formats
Station Details ID: 400139 Name: KINGFISH B (PLATFORM) Lat: -38.60 Lon: 148.19 Height: 31.4 m
Data from the previous 72 hours. | See also: Recent months for locations in Victoria
Date/Time
EDT
Temp
°C
App
Temp
°C
Dew
Point
°C
Rel
Hum
%
Delta-T
°C
Wind Press
QNH
hPa
Press
MSL
hPa
Rain since
9am
mm
Dir  Spd
km/h
Gust
km/h
Spd
kts
Gust
kts
05/03:20pm 19.2 13.6 14.5 74 2.7 NE 37 43 20 23 997.3 - -
05/03:10pm 19.0 13.8 14.5 75 2.6 NE 35 41 19 22 997.9 - -
05/03:00pm 18.8 14.0 14.5 76 2.5 NE 33 37 18 20 998.5 - -
05/02:50pm 18.5 13.2 14.3 76 2.4 NE 35 37 19 20 998.5 - -
05/02:40pm 18.4 13.1 14.2 76 2.4 NE 35 39 19 21 998.6 - -
05/02:30pm 18.4 13.1 14.1 76 2.5 NE 35 37 19 20 998.8 - -
05/01:50am 14.8 12.8 11.6 81 1.7 SSW 13 17 7 9 1012.8 - -
05/01:40am 14.7 12.7 11.6 82 1.7 SSW 13 17 7 9 1013.0 - -
05/01:30am 14.8 13.2 11.7 82 1.7 SSW 11 15 6 8 1012.9 - -
05/01:20am 15.0 13.5 11.8 81 1.7 SSW 11 11 6 6 1013.1 - -
05/01:10am 14.9 13.3 11.7 81 1.7 SW 11 13 6 7 1013.3 - -
05/01:00am 15.0 13.4 11.7 80 1.8 SW 11 15 6 8 1013.6 - -
05/12:50am 15.0 13.1 11.7 80 1.8 SW 13 17 7 9 1013.7 - -
05/12:40am 15.1 11.8 11.7 80 1.8 SSW 20 24 11 13 1013.6 - -
05/12:30am 15.1 11.5 11.8 81 1.8 SW 22 24 12 13 1013.5 - -
05/12:20am 15.2 12.5 11.8 80 1.8 SSW 17 20 9 11 1013.5 - -
05/12:10am 15.2 12.2 11.8 80 1.8 SSW 19 24 10 13 1013.5 - -
05/12:00am 15.1 10.7 11.6 79 1.9 SSW 26 30 14 16 1013.3 - -
 
Date/Time
EDT
Temp
°C
App
Temp
°C
Dew
Point
°C
Rel
Hum
%
Delta-T
°C
Wind Press
QNH
hPa
Press
MSL
hPa
Rain since
9am
mm
Dir  Spd
km/h
Gust
km/h
Spd
kts
Gust
kts
04/11:50pm 15.2 11.1 11.5 78 2.0 SSW 24 28 13 15 1013.5 - -
04/11:40pm 15.2 10.7 11.4 78 2.0 SSW 26 28 14 15 1013.6 - -
04/11:30pm 15.3 10.8 11.3 77 2.1 SSW 26 32 14 17 1013.6 - -
04/11:20pm 15.3 10.0 11.2 76 2.2 SSW 30 33 16 18 1013.6 - -
04/11:10pm 15.4 10.1 11.1 75 2.3 SSW 30 33 16 18 1013.5 - -
04/11:00pm 15.3 9.3 10.9 75 2.3 SSW 33 35 18 19 1013.6 - -
04/10:50pm 15.3 9.3 10.8 74 2.4 SSW 33 37 18 20 1013.3 - -
04/10:40pm 15.3 9.5 10.9 75 2.3 SSW 32 37 17 20 1013.3 - -
04/10:30pm 15.4 10.1 11.2 76 2.2 SSW 30 35 16 19 1013.4 - -
04/10:20pm 15.4 10.5 11.3 76 2.2 SSW 28 33 15 18 1013.5 - -
04/10:10pm 15.5 10.6 11.4 76 2.2 SSW 28 32 15 17 1013.5 - -
04/10:00pm 15.6 9.9 11.3 75 2.3 SSW 32 37 17 20 1013.5 - -
04/09:50pm 15.6 9.4 11.4 76 2.3 SSW 35 41 19 22 1013.5 - -
04/09:40pm 15.6 9.4 11.4 76 2.3 SSW 35 41 19 22 1013.6 - -
04/09:30pm 15.7 9.5 11.4 75 2.3 SSW 35 41 19 22 1013.7 - -
04/09:20pm 15.7 9.1 11.4 75 2.3 SSW 37 41 20 22 1013.9 - -
04/09:10pm 15.7 8.7 11.4 75 2.3 SSW 39 44 21 24 1014.0 - -
04/09:00pm 15.8 8.5 11.5 75 2.3 SSW 41 46 22 25 1014.0 - -
04/08:50pm 15.8 8.5 11.5 75 2.3 SSW 41 50 22 27 1014.2 - -
04/08:40pm 15.8 7.9 11.5 75 2.3 SSW 44 54 24 29 1014.2 - -
04/08:30pm 15.8 8.5 11.6 76 2.3 SSW 41 52 22 28 1013.9 - -
04/08:20pm 15.7 9.2 11.6 76 2.2 SSW 37 44 20 24 1013.9 - -
04/08:10pm 15.7 9.5 11.5 76 2.3 SSW 35 39 19 21 1013.8 - -
04/08:00pm 15.9 9.7 11.4 74 2.4 SSW 35 39 19 21 1013.8 - -
04/07:50pm 16.0 10.3 11.3 73 2.5 SSW 32 37 17 20 1013.5 - -
04/07:40pm 16.0 10.1 11.1 72 2.6 SSW 33 39 18 21 1013.3 - -
04/07:30pm 16.0 9.7 11.0 72 2.7 SSW 35 39 19 21 1013.2 - -
04/07:20pm 15.9 10.1 10.9 72 2.7 SSW 32 37 17 20 1013.0 - -
04/07:10pm 16.0 10.0 10.9 72 2.7 SSW 33 35 18 19 1013.2 - -
04/07:00pm 16.3 10.9 11.0 71 2.8 SSW 30 35 16 19 1013.3 - -
04/06:50pm 16.6 11.2 11.0 69 3.0 SSW 30 35 16 19 1013.3 - -
04/06:40pm 16.7 11.0 11.0 69 3.1 SW 32 37 17 20 1013.2 - -
04/06:30pm 16.6 10.8 10.7 68 3.1 SW 32 37 17 20 1013.0 - -
04/06:20pm 16.5 10.4 10.5 67 3.2 SW 33 39 18 21 1013.0 - -
04/06:10pm 16.6 9.8 10.5 67 3.2 SW 37 41 20 22 1013.0 - -
04/06:00pm 16.7 9.5 10.5 67 3.3 SW 39 44 21 24 1013.1 - -
04/05:50pm 16.7 9.1 10.4 66 3.3 SW 41 46 22 25 1013.2 - -
04/05:40pm 16.7 9.5 10.5 67 3.3 SW 39 46 21 25 1013.3 - -
04/05:30pm 16.7 9.8 10.4 66 3.3 SW 37 43 20 23 1013.4 - -
04/05:20pm 16.7 10.2 10.4 66 3.3 SW 35 43 19 23 1013.3 - -
04/05:10pm 16.7 9.9 10.5 67 3.3 SW 37 41 20 22 1013.2 - -
04/05:00pm 16.6 9.0 10.4 67 3.3 SW 41 46 22 25 1013.3 - -
04/04:50pm 16.6 8.9 10.3 66 3.3 SW 41 48 22 26 1013.4 - -
04/04:40pm 16.7 8.7 10.3 66 3.4 SW 43 50 23 27 1013.5 - -
04/04:30pm 16.7 8.6 10.2 65 3.4 SW 43 48 23 26 1013.5 - -
04/04:20pm 16.7 9.0 10.2 65 3.4 SW 41 48 22 26 1013.6 - -
04/04:10pm 16.7 9.7 10.1 65 3.5 SW 37 46 20 25 1013.7 - -
04/04:00pm 16.7 10.2 10.2 65 3.4 SW 35 43 19 23 1013.9 - -
04/03:50pm 16.7 10.2 10.2 65 3.4 SW 35 41 19 22 1013.9 - -
04/03:40pm 16.6 9.3 10.2 66 3.4 SW 39 44 21 24 1013.7 - -
04/03:30pm 16.4 8.3 10.1 66 3.3 SW 43 48 23 26 1013.8 - -
04/03:20pm 16.5 9.2 10.2 66 3.3 SW 39 46 21 25 1014.0 - -
04/03:10pm 16.6 9.3 10.1 65 3.4 SW 39 48 21 26 1014.0 - -
04/03:00pm 16.8 9.8 10.1 64 3.5 SW 37 46 20 25 1014.1 - -
04/02:50pm 16.9 9.9 9.9 63 3.7 SW 37 46 20 25 1014.2 - -
04/02:40pm 17.1 10.5 9.9 62 3.8 SW 35 46 19 25 1014.1 - -
04/02:30pm 17.3 11.0 9.6 60 4.0 SW 33 41 18 22 1014.2 - -
04/02:00am 14.3 11.3 7.8 65 3.2 NNW 13 15 7 8 1016.8 - -
04/01:50am 14.2 11.5 7.5 64 3.3 NNW 11 15 6 8 1017.0 - -
04/01:40am 14.2 11.1 7.4 63 3.3 NNW 13 15 7 8 1017.2 - -
04/01:30am 14.3 11.3 7.5 63 3.4 NNW 13 15 7 8 1017.4 - -
04/01:20am 14.3 11.3 7.5 63 3.4 NNW 13 15 7 8 1017.6 - -
04/01:10am 14.2 11.5 7.4 63 3.3 NNW 11 15 6 8 1017.7 - -
04/01:00am 14.2 11.5 7.5 64 3.3 NNW 11 15 6 8 1018.0 - -
04/12:50am 14.2 11.5 7.5 64 3.3 NW 11 15 6 8 1018.1 - -
04/12:40am 14.2 11.5 7.5 64 3.3 NNW 11 13 6 7 1018.1 - -
04/12:30am 14.2 11.9 7.6 64 3.3 NW 9 13 5 7 1018.2 - -
04/12:20am 14.1 11.4 7.5 64 3.3 NW 11 13 6 7 1018.2 - -
04/12:10am 14.2 12.3 7.6 64 3.3 NNW 7 11 4 6 1018.2 - -
04/12:00am 14.2 12.0 7.7 65 3.2 NW 9 13 5 7 1018.3 - -
 
Date/Time
EDT
Temp
°C
App
Temp
°C
Dew
Point
°C
Rel
Hum
%
Delta-T
°C
Wind Press
QNH
hPa
Press
MSL
hPa
Rain since
9am
mm
Dir  Spd
km/h
Gust
km/h
Spd
kts
Gust
kts
03/11:50pm 14.1 11.8 7.6 65 3.2 NNW 9 11 5 6 1018.4 - -
03/11:40pm 14.1 11.9 7.7 65 3.2 NNW 9 13 5 7 1018.6 - -
03/11:30pm 13.9 11.6 7.5 65 3.1 NNW 9 11 5 6 1018.6 - -
03/11:20pm 14.0 12.1 7.6 65 3.2 NW 7 9 4 5 1018.7 - -
03/11:10pm 13.9 12.0 7.4 65 3.2 NNW 7 11 4 6 1018.6 - -
03/11:00pm 13.9 12.1 7.3 64 3.2 NNW 6 7 3 4 1018.6 - -
03/10:50pm 14.0 12.3 7.6 65 3.2 NNW 6 9 3 5 1018.7 - -
03/10:40pm 13.9 12.6 7.5 65 3.1 NNW 4 7 2 4 1018.7 - -
03/10:30pm 13.8 13.2 7.4 65 3.1 CALM 0 4 0 2 1018.7 - -
03/10:20pm 13.8 13.2 7.3 65 3.2 CALM 0 0 0 0 1018.5 - -
03/10:10pm 13.9 13.3 7.3 64 3.2 CALM 0 0 0 0 1018.4 - -
03/10:00pm 14.0 13.4 7.4 64 3.2 CALM 0 2 0 1 1018.5 - -
03/09:50pm 14.0 13.4 7.3 64 3.3 CALM 0 2 0 1 1018.4 - -
03/09:40pm 14.1 13.5 7.3 63 3.3 CALM 0 2 0 1 1018.5 - -
03/09:30pm 14.1 12.7 7.1 62 3.4 SSW 4 6 2 3 1018.6 - -
03/09:20pm 14.2 12.8 7.2 63 3.4 S 4 6 2 3 1018.7 - -
03/09:10pm 14.2 12.2 7.1 62 3.5 SSW 7 11 4 6 1018.7 - -
03/09:00pm 14.3 12.3 7.3 63 3.4 S 7 11 4 6 1018.7 - -
03/08:50pm 14.3 11.9 7.2 62 3.5 S 9 13 5 7 1018.8 - -
03/08:40pm 14.4 11.7 7.2 62 3.5 S 11 13 6 7 1018.8 - -
03/08:30pm 14.4 11.2 7.0 61 3.6 S 13 17 7 9 1018.9 - -
03/08:20pm 14.4 10.7 6.5 59 3.8 S 15 19 8 10 1019.0 - -
03/08:10pm 14.4 10.9 7.2 62 3.5 S 15 20 8 11 1018.9 - -
03/08:00pm 14.4 10.1 6.9 60 3.7 S 19 20 10 11 1019.0 - -
03/07:50pm 14.4 10.0 6.4 58 3.9 S 19 20 10 11 1019.1 - -
03/07:40pm 14.4 9.9 7.0 61 3.6 S 20 24 11 13 1019.2 - -
03/07:30pm 14.3 9.8 7.0 61 3.6 S 20 26 11 14 1019.2 - -
03/07:20pm 14.3 10.0 7.2 62 3.5 S 19 22 10 12 1019.1 - -
03/07:10pm 14.2 9.9 7.0 62 3.5 S 19 24 10 13 1019.1 - -
03/07:00pm 14.2 9.7 7.1 62 3.5 S 20 26 11 14 1019.0 - -
03/06:50pm 14.2 9.6 6.7 60 3.6 S 20 24 11 13 1018.9 - -
03/06:40pm 14.2 9.6 6.7 60 3.6 S 20 24 11 13 1019.0 - -
03/06:30pm 14.2 9.6 6.6 60 3.7 S 20 24 11 13 1019.0 - -
03/06:20pm 14.2 9.9 6.8 61 3.6 S 19 22 10 12 1019.1 - -
03/06:10pm 14.2 10.2 6.7 60 3.6 S 17 20 9 11 1019.1 - -
03/06:00pm 14.1 9.8 7.1 62 3.4 S 19 22 10 12 1019.0 - -
03/05:50pm 14.1 9.8 7.0 62 3.5 S 19 22 10 12 1019.0 - -
03/05:40pm 14.0 9.8 7.3 64 3.3 S 19 22 10 12 1019.0 - -
03/05:30pm 14.0 9.7 7.2 63 3.3 S 19 22 10 12 1019.0 - -
03/05:20pm 14.0 9.5 7.1 63 3.4 S 20 24 11 13 1019.1 - -
03/05:10pm 13.9 9.4 7.1 63 3.3 S 20 22 11 12 1019.1 - -
03/05:00pm 13.9 9.5 7.4 65 3.2 S 20 24 11 13 1019.2 - -
03/04:50pm 13.9 9.5 7.3 64 3.2 S 20 24 11 13 1019.2 - -
03/04:40pm 14.0 9.6 7.3 64 3.3 S 20 28 11 15 1019.2 - -
03/04:30pm 13.9 9.5 7.3 64 3.2 S 20 22 11 12 1019.2 - -
03/04:20pm 14.0 9.8 7.5 65 3.2 S 19 22 10 12 1019.2 - -
03/04:10pm 14.0 10.2 7.5 65 3.2 S 17 20 9 11 1019.3 - -
03/04:00pm 14.1 10.7 7.7 65 3.2 S 15 19 8 10 1019.4 - -
03/03:50pm 14.3 10.9 7.7 64 3.3 SSW 15 17 8 9 1019.7 - -
03/03:40pm 14.7 12.1 7.7 63 3.5 SSW 11 17 6 9 1019.8 - -
03/03:30pm 15.0 12.4 7.7 61 3.6 SSW 11 15 6 8 1019.9 - -
03/03:20pm 15.3 12.7 7.7 60 3.8 SSW 11 13 6 7 1020.0 - -
03/03:10pm 15.7 13.5 7.8 59 4.0 SW 9 13 5 7 1020.1 - -
03/03:00pm 16.0 13.4 7.7 58 4.2 SW 11 13 6 7 1020.2 - -
03/02:50pm 15.9 13.7 7.7 58 4.1 SW 9 17 5 9 1020.2 - -
03/02:40pm 16.2 13.6 7.7 57 4.3 SW 11 13 6 7 1020.3 - -
03/02:30pm 16.5 14.3 7.7 56 4.4 SW 9 15 5 8 1020.5 - -
03/01:50am 13.5 9.1 6.4 62 3.4 SW 19 24 10 13 1023.8 - -
03/01:40am 13.5 8.1 6.4 62 3.4 SW 24 28 13 15 1023.8 - -
03/01:30am 13.6 8.7 6.8 63 3.3 SW 22 26 12 14 1024.1 - -
03/01:20am 13.6 8.7 6.8 63 3.3 SW 22 28 12 15 1024.2 - -
03/01:10am 13.6 8.3 6.7 63 3.3 SW 24 28 13 15 1024.3 - -
03/01:00am 13.6 7.9 6.6 62 3.4 SW 26 30 14 16 1024.2 - -
03/12:50am 13.7 8.0 6.8 63 3.3 SW 26 33 14 18 1024.4 - -
03/12:40am 13.7 8.0 6.5 62 3.5 SW 26 32 14 17 1024.2 - -
03/12:30am 13.7 8.0 6.7 62 3.4 SW 26 33 14 18 1024.4 - -
03/12:20am 13.7 7.1 6.0 59 3.7 SW 30 37 16 20 1024.3 - -
03/12:10am 13.7 7.1 5.9 59 3.7 SW 30 37 16 20 1024.2 - -
03/12:00am 13.8 8.0 6.2 60 3.6 SW 26 33 14 18 1024.5 - -
 
Date/Time
EDT
Temp
°C
App
Temp
°C
Dew
Point
°C
Rel
Hum
%
Delta-T
°C
Wind Press
QNH
hPa
Press
MSL
hPa
Rain since
9am
mm
Dir  Spd
km/h
Gust
km/h
Spd
kts
Gust
kts
02/11:50pm 13.8 6.8 6.0 59 3.7 SW 32 39 17 21 1024.6 - -
02/11:40pm 13.8 7.6 6.2 60 3.6 SW 28 35 15 19 1024.6 - -
02/11:30pm 13.8 7.2 6.1 59 3.7 SW 30 35 16 19 1024.4 - -
02/11:20pm 13.8 7.6 6.2 60 3.6 SW 28 35 15 19 1024.4 - -
02/11:10pm 13.9 7.4 6.5 61 3.6 SW 30 33 16 18 1024.4 - -
02/11:00pm 13.9 6.8 6.3 60 3.6 SW 33 39 18 21 1024.3 - -
02/10:50pm 13.9 7.0 6.5 61 3.6 SSW 32 35 17 19 1024.5 - -
02/10:40pm 14.0 7.0 6.9 62 3.5 SSW 33 39 18 21 1024.4 - -
02/10:30pm 13.9 6.1 6.8 62 3.4 SSW 37 43 20 23 1024.2 - -
02/10:20pm 14.0 6.7 7.2 63 3.3 SSW 35 41 19 22 1024.2 - -
02/10:10pm 14.0 6.4 7.4 64 3.2 SSW 37 44 20 24 1024.4 - -
02/10:00pm 14.0 6.3 7.2 63 3.3 SSW 37 43 20 23 1024.3 - -
02/09:50pm 14.1 6.2 7.7 65 3.2 SSW 39 44 21 24 1024.1 - -
02/09:40pm 14.1 6.1 7.5 64 3.3 SSW 39 44 21 24 1024.3 - -
02/09:30pm 14.2 5.9 7.7 65 3.2 SSW 41 46 22 25 1024.1 - -
02/09:20pm 14.2 5.3 7.6 64 3.3 SW 44 54 24 29 1023.8 - -
02/09:10pm 14.3 5.0 7.7 64 3.3 SSW 46 52 25 28 1024.0 - -
02/09:00pm 14.5 5.3 7.8 64 3.3 SSW 46 52 25 28 1023.8 - -
02/08:50pm 14.6 5.6 7.4 62 3.6 SW 44 52 24 28 1023.5 - -
02/08:40pm 14.6 5.7 6.7 59 3.8 SW 43 50 23 27 1023.4 - -
02/08:30pm 14.8 5.6 6.3 56 4.1 SW 44 52 24 28 1023.3 - -
02/08:20pm 14.7 5.4 5.9 55 4.2 SW 44 52 24 28 1023.5 - -
02/08:10pm 14.7 4.9 5.5 54 4.4 SW 46 54 25 29 1023.4 - -
02/08:00pm 14.8 5.6 6.3 56 4.1 SW 44 52 24 28 1023.2 - -
02/07:50pm 14.8 5.5 5.9 55 4.3 SW 44 50 24 27 1022.9 - -
02/07:40pm 14.8 5.4 5.6 54 4.4 SW 44 50 24 27 1022.8 - -
02/07:30pm 14.8 5.6 6.3 56 4.1 SW 44 52 24 28 1022.7 - -
02/07:20pm 14.7 4.8 6.8 59 3.9 SW 48 56 26 30 1022.6 - -
02/07:10pm 14.8 5.5 7.5 61 3.6 SW 46 54 25 29 1022.5 - -
02/07:00pm 14.8 5.5 7.4 61 3.7 SW 46 54 25 29 1022.4 - -
02/06:50pm 14.8 5.6 7.8 63 3.5 SW 46 56 25 30 1022.1 - -
02/06:40pm 14.8 5.5 7.4 61 3.7 SW 46 52 25 28 1022.3 - -
02/06:30pm 14.9 5.6 7.6 61 3.6 SW 46 54 25 29 1022.4 - -
02/06:20pm 14.8 5.8 7.4 61 3.7 SW 44 52 24 28 1021.9 - -
02/06:10pm 15.0 5.6 7.3 60 3.8 SW 46 54 25 29 1022.0 - -
02/06:00pm 14.8 5.0 7.0 59 3.8 SW 48 54 26 29 1022.2 - -
02/05:50pm 14.8 5.4 7.2 60 3.7 SW 46 56 25 30 1021.9 - -
02/05:40pm 14.8 4.6 6.8 58 3.9 SW 50 56 27 30 1022.0 - -
02/05:30pm 14.9 5.5 7.3 60 3.7 SW 46 56 25 30 1022.0 - -
02/05:20pm 14.9 5.5 7.3 60 3.7 SW 46 56 25 30 1021.8 - -
02/05:10pm 15.0 5.8 7.8 62 3.6 SW 46 52 25 28 1021.5 - -
02/05:00pm 15.0 5.7 7.7 61 3.6 SW 46 52 25 28 1021.8 - -
02/04:50pm 15.0 6.1 7.6 61 3.7 SW 44 50 24 27 1022.0 - -
02/04:40pm 15.1 6.1 7.4 60 3.8 SW 44 50 24 27 1021.6 - -
02/04:30pm 15.3 6.9 7.2 58 4.0 SW 41 50 22 27 1021.4 - -
02/04:20pm 15.2 7.4 6.8 57 4.1 SW 37 43 20 23 1021.4 - -
02/04:10pm 15.3 7.6 7.0 57 4.1 SW 37 46 20 25 1021.4 - -
02/04:00pm 15.2 5.9 6.1 54 4.4 SW 44 50 24 27 1020.8 - -
02/03:50pm 15.3 6.2 6.1 54 4.4 SW 43 50 23 27 1020.8 - -
02/03:40pm 15.2 6.0 6.3 55 4.3 SW 44 52 24 28 1021.0 - -
02/03:30pm 15.5 6.4 7.0 57 4.2 SW 44 54 24 29 1020.9 - -

Other formats

Comma delimited format used in spreadsheet applications
http://www.bom.gov.au/fwo/IDV60801/IDV60801.55039.axf

JavaScript Object Notation format (JSON) in row-major order
http://www.bom.gov.au/fwo/IDV60801/IDV60801.55039.json

Data quality

Most of these data are generated automatically and are frequently updated. Quality checks on data are not normally performed. It is possible for incorrect values to appear. Refer to information at About Latest Weather Observations and please check the disclaimer before using these data.